Time;durP1;ratioP1;P1;durP2;ratioP2;P2;SDS_P1;SDS_P2;PMS_P1;PMS_P2;Temp;Humidity;BMP_temperature;BMP_pressure;BME280_temperature;BME280_humidity;BME280_pressure;Samples;Min_cycle;Max_cycle;Signal;HPM_P1;HPM_P2
2023/03/20 00:01:25;;;;;;;79.77;53.73;;;9.80;99.90;;;;;;5072894;28;20307;-66
2023/03/20 00:03:56;;;;;;;71.50;48.53;;;9.70;99.90;;;;;;5073095;28;20208;-67
2023/03/20 00:06:28;;;;;;;76.80;49.93;;;9.70;99.90;;;;;;5072912;28;20262;-66
2023/03/20 00:08:57;;;;;;;66.67;46.33;;;9.60;99.90;;;;;;5072911;28;20295;-67
2023/03/20 00:11:29;;;;;;;66.47;47.30;;;9.50;99.90;;;;;;5073030;28;20250;-67
2023/03/20 00:14:01;;;;;;;68.97;46.93;;;9.40;99.90;;;;;;5072802;28;20279;-67
2023/03/20 00:16:32;;;;;;;80.10;49.63;;;9.30;99.90;;;;;;5072742;28;20287;-66
2023/03/20 00:19:06;;;;;;;74.53;51.83;;;9.20;99.90;;;;;;5072592;28;20227;-67
2023/03/20 00:21:38;;;;;;;79.53;52.37;;;9.20;99.90;;;;;;5072561;28;20203;-68
2023/03/20 00:24:07;;;;;;;87.30;56.10;;;9.10;99.90;;;;;;5072581;28;20203;-67
2023/03/20 00:26:40;;;;;;;86.53;55.47;;;8.90;99.90;;;;;;5071633;28;20562;-67
2023/03/20 00:29:20;;;;;;;73.30;50.60;;;8.80;99.90;;;;;;5054426;28;20569;-67
2023/03/20 00:31:51;;;;;;;71.47;50.43;;;8.60;99.90;;;;;;5072376;28;20666;-66
2023/03/20 00:34:27;;;;;;;71.60;51.40;;;8.70;99.90;;;;;;5054209;28;20745;-67
2023/03/20 00:36:57;;;;;;;82.83;50.50;;;8.60;99.90;;;;;;5052350;28;20196;-66
2023/03/20 00:39:28;;;;;;;78.40;51.03;;;8.70;99.90;;;;;;5061001;28;20221;-68
2023/03/20 00:42:00;;;;;;;78.10;52.90;;;8.40;99.90;;;;;;5059412;28;20556;-68
2023/03/20 00:44:34;;;;;;;75.27;50.73;;;8.60;99.90;;;;;;5052256;28;20563;-68
2023/03/20 00:47:10;;;;;;;78.63;50.00;;;8.80;99.90;;;;;;5052201;28;20203;-67
2023/03/20 00:49:44;;;;;;;78.97;48.73;;;8.70;99.90;;;;;;5052048;28;20248;-66
2023/03/20 00:52:15;;;;;;;75.13;48.83;;;8.60;99.90;;;;;;5051993;28;20192;-67
2023/03/20 00:54:44;;;;;;;66.07;47.13;;;8.80;99.90;;;;;;5052195;28;20272;-66
2023/03/20 00:57:25;;;;;;;66.20;46.27;;;8.80;99.90;;;;;;5050553;28;20220;-67
2023/03/20 01:00:00;;;;;;;70.57;49.17;;;8.90;99.90;;;;;;5051913;28;20219;-67
2023/03/20 01:02:31;;;;;;;73.83;49.50;;;8.80;99.90;;;;;;5051677;28;20720;-67
2023/03/20 01:05:07;;;;;;;68.77;47.90;;;8.70;99.90;;;;;;5051856;28;20216;-68
2023/03/20 01:07:36;;;;;;;71.57;49.57;;;8.70;99.90;;;;;;5051749;28;20224;-66
2023/03/20 01:10:06;;;;;;;71.07;50.00;;;8.70;99.90;;;;;;5084146;28;20231;-66
2023/03/20 01:12:47;;;;;;;77.70;52.27;;;8.70;99.90;;;;;;5051599;28;20200;-67
2023/03/20 01:15:20;;;;;;;69.47;48.90;;;8.60;99.90;;;;;;5051608;28;20586;-67
2023/03/20 01:17:49;;;;;;;75.67;49.57;;;8.40;99.90;;;;;;5050466;28;20216;-67
2023/03/20 01:20:23;;;;;;;72.53;47.80;;;8.40;99.90;;;;;;5051545;28;20223;-68
2023/03/20 01:22:58;;;;;;;72.07;49.63;;;8.30;99.90;;;;;;5051643;28;20207;-68
2023/03/20 01:25:27;;;;;;;70.50;48.67;;;8.30;99.90;;;;;;5051506;28;20249;-67
2023/03/20 01:27:57;;;;;;;68.97;47.70;;;8.20;99.90;;;;;;5052002;28;20196;-68
2023/03/20 01:30:31;;;;;;;69.27;48.73;;;8.20;99.90;;;;;;5051436;28;20601;-68
2023/03/20 01:33:02;;;;;;;68.43;49.37;;;8.10;99.90;;;;;;5050133;28;20216;-68
2023/03/20 01:35:32;;;;;;;70.77;47.77;;;8.10;99.90;;;;;;5050279;28;20207;-68
2023/03/20 01:38:13;;;;;;;66.80;47.20;;;8.00;99.90;;;;;;5050311;28;20291;-67
2023/03/20 01:40:53;;;;;;;78.17;52.60;;;8.10;99.90;;;;;;5050016;28;20254;-68
2023/03/20 01:43:25;;;;;;;74.80;51.83;;;8.10;99.90;;;;;;5050048;28;20669;-69
2023/03/20 01:46:11;;;;;;;77.10;53.30;;;8.10;99.90;;;;;;5051224;28;20274;-68
2023/03/20 01:49:01;;;;;;;82.17;52.17;;;8.10;99.90;;;;;;5051337;28;20257;-68
2023/03/20 01:51:34;;;;;;;78.33;49.73;;;8.10;99.90;;;;;;5050180;28;20213;-68
2023/03/20 01:54:13;;;;;;;77.00;53.13;;;8.00;99.90;;;;;;5083510;28;20669;-68
2023/03/20 01:56:54;;;;;;;85.70;56.80;;;8.00;99.90;;;;;;5050026;28;20244;-68
2023/03/20 01:59:26;;;;;;;81.83;53.27;;;7.90;99.90;;;;;;5049955;28;20297;-69
2023/03/20 02:01:57;;;;;;;78.30;51.87;;;7.90;99.90;;;;;;5049599;28;20245;-67
2023/03/20 02:04:31;;;;;;;88.50;57.43;;;7.70;99.90;;;;;;5051371;28;20607;-68
2023/03/20 02:07:13;;;;;;;89.50;58.67;;;7.70;99.90;;;;;;5053813;28;20626;-68
2023/03/20 02:09:54;;;;;;;100.57;65.20;;;7.80;99.90;;;;;;5054018;28;20200;-68
2023/03/20 02:12:35;;;;;;;103.00;67.73;;;7.70;99.90;;;;;;5053793;28;20203;-68
2023/03/20 02:15:08;;;;;;;93.50;60.97;;;7.80;99.90;;;;;;5053798;28;20270;-67
2023/03/20 02:18:00;;;;;;;89.43;60.97;;;7.80;99.90;;;;;;5055020;28;20272;-68
2023/03/20 02:20:50;;;;;;;90.07;58.63;;;7.90;99.90;;;;;;5053541;28;20536;-68
2023/03/20 02:23:57;;;;;;;85.83;57.40;;;7.90;99.90;;;;;;5054933;28;20679;-66
2023/03/20 02:26:54;;;;;;;93.13;60.50;;;8.00;99.90;;;;;;4996254;28;20437;-68
2023/03/20 02:29:50;;;;;;;87.83;59.23;;;7.90;99.90;;;;;;4996630;28;20897;-67
2023/03/20 02:33:04;;;;;;;77.67;53.40;;;7.90;99.90;;;;;;4996363;28;20735;-68
2023/03/20 02:36:08;;;;;;;84.67;52.97;;;7.90;99.90;;;;;;4919331;29;20226;-68
2023/03/20 02:39:11;;;;;;;83.17;56.63;;;7.80;99.90;;;;;;4919321;29;20690;-67
2023/03/20 02:41:48;;;;;;;100.20;63.47;;;7.80;99.90;;;;;;4919069;29;20255;-68
2023/03/20 02:44:23;;;;;;;86.90;57.50;;;7.70;99.90;;;;;;4919261;29;20207;-65
2023/03/20 02:47:02;;;;;;;93.03;63.97;;;7.60;99.90;;;;;;4918876;29;20202;-67
2023/03/20 02:49:49;;;;;;;88.87;60.47;;;7.50;99.90;;;;;;4935039;29;20718;-66
2023/03/20 02:52:24;;;;;;;87.80;58.70;;;7.50;99.90;;;;;;4919152;29;20203;-68
2023/03/20 02:55:10;;;;;;;90.23;61.03;;;7.50;99.90;;;;;;4919091;29;20214;-67
2023/03/20 02:57:50;;;;;;;87.30;59.70;;;7.70;99.90;;;;;;4919001;29;20265;-68
2023/03/20 03:00:27;;;;;;;83.60;56.30;;;7.80;99.90;;;;;;4918713;29;20234;-66
2023/03/20 03:03:05;;;;;;;81.80;53.67;;;7.80;99.90;;;;;;4943512;28;20234;-67
2023/03/20 03:05:40;;;;;;;79.93;54.33;;;7.80;99.90;;;;;;4976229;28;20737;-67
2023/03/20 03:08:12;;;;;;;86.17;55.93;;;7.80;99.90;;;;;;4992682;28;20208;-67
2023/03/20 03:10:46;;;;;;;79.33;54.93;;;7.80;99.90;;;;;;4976330;28;20201;-67
2023/03/20 03:13:20;;;;;;;91.17;62.50;;;7.80;99.90;;;;;;5038989;28;20213;-67
2023/03/20 03:15:52;;;;;;;97.77;62.00;;;7.80;99.90;;;;;;5051164;28;20210;-67
2023/03/20 03:18:25;;;;;;;91.43;62.83;;;7.80;99.90;;;;;;5052721;28;20292;-67
2023/03/20 03:20:59;;;;;;;93.60;61.60;;;7.80;99.90;;;;;;5052502;28;20235;-67
2023/03/20 03:23:32;;;;;;;97.30;64.93;;;7.90;99.90;;;;;;5052489;28;20209;-67
2023/03/20 03:26:06;;;;;;;96.80;64.23;;;7.90;99.90;;;;;;5052519;28;20671;-68
2023/03/20 03:28:40;;;;;;;97.40;64.97;;;7.90;99.90;;;;;;5052365;28;20667;-68
2023/03/20 03:31:12;;;;;;;105.50;69.23;;;7.80;99.90;;;;;;5052456;28;20273;-68
2023/03/20 03:33:44;;;;;;;97.37;66.40;;;7.70;99.90;;;;;;5052377;28;20209;-68
2023/03/20 03:36:23;;;;;;;100.57;64.90;;;7.80;99.90;;;;;;5053711;28;20194;-68
2023/03/20 03:38:58;;;;;;;95.67;59.87;;;7.90;99.90;;;;;;5052265;28;20243;-69
2023/03/20 03:41:34;;;;;;;92.13;61.43;;;7.90;99.90;;;;;;5059036;28;20249;-68
2023/03/20 03:44:11;;;;;;;94.70;62.83;;;7.90;99.90;;;;;;5061225;28;20251;-67
2023/03/20 03:46:46;;;;;;;96.70;64.37;;;7.90;99.90;;;;;;5053319;28;20194;-68
2023/03/20 03:49:21;;;;;;;102.57;67.40;;;7.90;99.90;;;;;;5072020;28;20201;-68
2023/03/20 03:51:55;;;;;;;95.87;66.60;;;7.90;99.90;;;;;;5071661;28;20205;-67
2023/03/20 03:54:28;;;;;;;90.27;61.53;;;7.80;99.90;;;;;;5072184;28;20563;-67
2023/03/20 03:57:22;;;;;;;87.97;60.30;;;7.80;99.90;;;;;;5073214;28;20208;-67
2023/03/20 03:59:52;;;;;;;98.23;66.50;;;7.80;99.90;;;;;;5071919;28;20209;-68
2023/03/20 04:02:23;;;;;;;101.63;64.23;;;7.90;99.90;;;;;;5072897;28;20246;-69
2023/03/20 04:04:55;;;;;;;97.67;63.53;;;7.90;99.90;;;;;;5073299;28;20553;-67
2023/03/20 04:07:27;;;;;;;99.57;63.70;;;7.90;99.90;;;;;;5072986;28;20556;-68
2023/03/20 04:09:57;;;;;;;96.23;61.70;;;7.90;99.90;;;;;;5072946;28;20194;-67
2023/03/20 04:12:35;;;;;;;93.27;61.27;;;7.90;99.90;;;;;;5072616;28;20200;-68
2023/03/20 04:15:07;;;;;;;89.87;63.00;;;7.90;99.90;;;;;;5071460;28;20209;-68
2023/03/20 04:17:37;;;;;;;89.30;60.27;;;7.90;99.90;;;;;;5070557;28;20655;-68
2023/03/20 04:20:08;;;;;;;91.87;61.20;;;7.90;99.90;;;;;;5071494;28;20213;-69
2023/03/20 04:22:37;;;;;;;91.07;61.20;;;7.90;99.90;;;;;;5068231;28;20224;-68
2023/03/20 04:25:15;;;;;;;89.17;61.53;;;7.90;99.90;;;;;;5051477;28;20198;-66
2023/03/20 04:27:45;;;;;;;95.63;59.93;;;7.90;99.90;;;;;;5072032;28;20668;-66
2023/03/20 04:30:26;;;;;;;87.63;59.33;;;7.70;99.90;;;;;;5071306;28;20201;-67
2023/03/20 04:33:13;;;;;;;88.43;60.60;;;7.70;99.90;;;;;;5060003;28;20213;-67
2023/03/20 04:36:12;;;;;;;88.53;59.43;;;7.70;99.90;;;;;;5047533;28;20692;-68
2023/03/20 04:38:42;;;;;;;84.30;59.17;;;7.80;99.90;;;;;;5051065;28;20209;-68
2023/03/20 04:41:11;;;;;;;88.43;56.93;;;7.80;99.90;;;;;;5051048;28;20218;-68
2023/03/20 04:43:41;;;;;;;84.67;59.20;;;7.90;99.90;;;;;;5051100;28;20294;-67
2023/03/20 04:46:10;;;;;;;84.17;58.60;;;7.90;99.90;;;;;;5050690;28;20203;-66
2023/03/20 04:48:40;;;;;;;88.80;60.17;;;7.90;99.90;;;;;;5050883;28;20198;-66
2023/03/20 04:51:10;;;;;;;83.70;57.70;;;7.90;99.90;;;;;;5057263;28;20210;-67
2023/03/20 04:53:49;;;;;;;87.97;59.10;;;7.90;99.90;;;;;;5070006;28;20197;-67
2023/03/20 04:56:18;;;;;;;88.43;57.00;;;7.80;99.90;;;;;;5068387;28;20693;-66
2023/03/20 04:58:51;;;;;;;82.43;56.27;;;7.80;99.90;;;;;;5069704;28;20201;-66
2023/03/20 05:01:23;;;;;;;86.43;56.90;;;7.90;99.90;;;;;;5069546;28;20312;-67
2023/03/20 05:03:59;;;;;;;86.23;57.20;;;7.90;99.90;;;;;;5071922;28;20193;-67
2023/03/20 05:06:34;;;;;;;78.47;54.30;;;8.00;99.90;;;;;;5061311;28;20538;-67
2023/03/20 05:09:03;;;;;;;77.50;55.17;;;7.90;99.90;;;;;;5057090;28;20206;-66
2023/03/20 05:11:37;;;;;;;79.80;55.97;;;7.90;99.90;;;;;;5059205;28;20264;-65
2023/03/20 05:14:10;;;;;;;82.30;56.27;;;8.00;99.90;;;;;;5071611;28;20213;-67
2023/03/20 05:16:47;;;;;;;78.97;56.53;;;8.10;99.90;;;;;;5051629;28;20206;-66
2023/03/20 05:19:51;;;;;;;83.70;56.03;;;8.10;99.90;;;;;;5055705;28;20200;-67
2023/03/20 05:22:40;;;;;;;74.73;52.07;;;8.20;99.90;;;;;;5071296;28;20256;-67
2023/03/20 05:25:48;;;;;;;79.37;53.87;;;8.20;99.90;;;;;;5049072;28;20236;-67
2023/03/20 05:28:43;;;;;;;78.27;54.47;;;8.20;99.90;;;;;;5049283;28;20345;-67
2023/03/20 05:31:43;;;;;;;78.07;53.90;;;8.20;99.90;;;;;;5048787;28;20222;-67
2023/03/20 05:34:39;;;;;;;79.43;53.10;;;8.30;99.90;;;;;;5032505;28;20264;-67
2023/03/20 05:37:26;;;;;;;73.73;51.33;;;8.40;99.90;;;;;;5049337;28;20198;-67
2023/03/20 05:40:28;;;;;;;71.53;51.90;;;8.50;99.90;;;;;;5048333;28;20202;-66
2023/03/20 05:43:19;;;;;;;78.87;52.70;;;8.60;99.90;;;;;;5049070;28;20209;-66
2023/03/20 05:46:14;;;;;;;74.70;52.57;;;8.60;99.90;;;;;;5048999;28;20225;-67
2023/03/20 05:49:08;;;;;;;113.20;77.97;;;8.50;99.90;;;;;;5048786;28;20564;-66
2023/03/20 05:51:57;;;;;;;80.20;56.90;;;8.60;99.90;;;;;;5049201;28;20332;-66
2023/03/20 05:54:49;;;;;;;81.50;56.10;;;8.60;99.90;;;;;;4970173;28;20284;-67
2023/03/20 05:57:39;;;;;;;86.67;57.73;;;8.70;99.90;;;;;;4954181;28;20260;-67
2023/03/20 06:00:30;;;;;;;87.63;58.60;;;8.80;99.90;;;;;;4970321;28;20209;-67
2023/03/20 06:03:21;;;;;;;82.47;57.40;;;8.90;99.90;;;;;;4987765;28;20316;-67
2023/03/20 06:06:07;;;;;;;92.47;60.50;;;8.90;99.90;;;;;;4973304;28;20684;-67
2023/03/20 06:08:36;;;;;;;89.80;61.27;;;9.00;99.90;;;;;;4989771;28;20338;-67
2023/03/20 06:11:08;;;;;;;85.10;60.63;;;9.00;99.90;;;;;;4989564;28;20256;-67
2023/03/20 06:13:39;;;;;;;93.63;62.47;;;9.10;99.90;;;;;;4973142;28;20209;-67
2023/03/20 06:16:11;;;;;;;83.83;59.40;;;8.90;99.90;;;;;;4989553;28;20717;-67
2023/03/20 06:18:40;;;;;;;85.83;57.37;;;9.00;99.90;;;;;;4973105;28;20239;-67
2023/03/20 06:21:11;;;;;;;81.57;58.70;;;9.00;99.90;;;;;;4973338;28;20206;-67
2023/03/20 06:23:44;;;;;;;77.80;57.47;;;9.00;99.90;;;;;;4989570;28;20209;-67
2023/03/20 06:26:19;;;;;;;82.83;56.83;;;9.30;99.90;;;;;;4973333;28;20301;-67
2023/03/20 06:29:00;;;;;;;122.37;85.17;;;9.40;99.90;;;;;;4989345;28;20212;-67
2023/03/20 06:31:42;;;;;;;137.80;98.23;;;9.50;99.90;;;;;;5011429;28;20247;-67
2023/03/20 06:34:48;;;;;;;;;;;;;;;;;;;;;
2023/03/20 06:37:43;;;;;;;132.53;91.87;;;9.70;99.90;;;;;;5069571;28;20629;-67
2023/03/20 06:40:59;;;;;;;127.17;86.30;;;9.80;99.90;;;;;;5068287;28;20203;-67
2023/03/20 06:44:10;;;;;;;109.17;74.40;;;10.10;99.90;;;;;;5064660;28;20760;-66
2023/03/20 06:47:19;;;;;;;113.43;82.03;;;10.30;99.90;;;;;;4969730;28;20211;-67
2023/03/20 06:49:59;;;;;;;131.83;89.63;;;10.50;99.90;;;;;;4970016;28;20217;-66
2023/03/20 06:52:33;;;;;;;120.20;81.50;;;10.90;99.90;;;;;;4973082;28;20242;-67
2023/03/20 06:55:20;;;;;;;134.90;85.53;;;11.10;99.90;;;;;;4973410;28;20594;-67
2023/03/20 06:57:57;;;;;;;129.73;90.43;;;11.10;99.90;;;;;;4956820;28;20356;-67
2023/03/20 07:00:31;;;;;;;81.53;57.90;;;11.20;99.90;;;;;;4973062;28;20219;-67
2023/03/20 07:03:07;;;;;;;82.80;54.73;;;11.20;99.90;;;;;;4972733;28;20685;-67
2023/03/20 07:05:46;;;;;;;89.90;59.90;;;11.30;99.90;;;;;;4956831;28;20211;-67
2023/03/20 07:08:51;;;;;;;105.20;75.23;;;11.30;99.90;;;;;;4956860;28;20670;-67
2023/03/20 07:11:39;;;;;;;128.03;92.10;;;11.30;99.90;;;;;;4956698;28;20640;-67
2023/03/20 07:14:18;;;;;;;43.97;34.83;;;11.30;99.90;;;;;;4973058;28;20738;-67
2023/03/20 07:17:11;;;;;;;46.07;33.17;;;11.40;99.90;;;;;;4965476;28;20207;-67
2023/03/20 07:19:58;;;;;;;30.80;23.60;;;11.50;99.90;;;;;;4899398;29;20210;-67
2023/03/20 07:23:05;;;;;;;27.87;22.80;;;11.60;99.90;;;;;;5003450;28;20255;-67
2023/03/20 07:26:14;;;;;;;27.30;20.43;;;11.70;99.90;;;;;;5073973;28;20215;-67
2023/03/20 07:29:03;;;;;;;29.70;21.17;;;11.70;99.90;;;;;;5072411;28;20212;-67
2023/03/20 07:31:48;;;;;;;24.70;19.27;;;11.80;99.90;;;;;;5072671;28;20224;-67
2023/03/20 07:34:28;;;;;;;25.80;20.73;;;11.90;99.90;;;;;;5072318;28;20683;-67
2023/03/20 07:37:10;;;;;;;27.87;20.53;;;11.90;99.90;;;;;;5072364;28;20564;-67
2023/03/20 07:39:48;;;;;;;29.80;23.03;;;11.80;99.90;;;;;;5072015;28;20278;-67
2023/03/20 07:42:48;;;;;;;28.83;22.37;;;11.70;99.90;;;;;;5072128;28;20661;-67
2023/03/20 07:46:06;;;;;;;34.33;24.70;;;11.70;99.90;;;;;;5071932;28;20644;-67
2023/03/20 07:48:37;;;;;;;33.60;25.10;;;11.60;99.90;;;;;;5072266;28;20209;-67
2023/03/20 07:51:06;;;;;;;31.33;24.50;;;11.70;99.90;;;;;;5072061;28;20209;-67
2023/03/20 07:53:35;;;;;;;29.17;23.77;;;12.10;99.90;;;;;;5072044;28;20312;-67
2023/03/20 07:56:05;;;;;;;33.10;23.50;;;12.80;99.90;;;;;;5072011;28;20333;-67
2023/03/20 07:58:35;;;;;;;33.40;21.90;;;13.00;99.90;;;;;;5072044;28;20209;-67
2023/03/20 08:01:07;;;;;;;28.40;22.97;;;13.00;99.90;;;;;;5073131;28;20237;-67
2023/03/20 08:03:37;;;;;;;32.23;22.60;;;12.90;99.90;;;;;;5072388;28;20209;-67
2023/03/20 08:06:08;;;;;;;28.00;23.03;;;12.90;99.90;;;;;;5072910;28;20201;-67
2023/03/20 08:08:39;;;;;;;27.43;21.77;;;13.00;99.90;;;;;;5073142;28;20204;-67
2023/03/20 08:11:08;;;;;;;26.40;20.17;;;12.90;99.90;;;;;;5072832;28;20186;-67
2023/03/20 08:13:39;;;;;;;31.23;23.23;;;12.80;99.90;;;;;;5072769;28;20217;-67
2023/03/20 08:16:14;;;;;;;28.53;21.80;;;13.60;99.90;;;;;;5072714;28;20205;-67
2023/03/20 08:18:43;;;;;;;27.70;21.53;;;14.50;99.90;;;;;;5071259;28;20197;-67
2023/03/20 08:21:12;;;;;;;30.60;23.50;;;15.30;99.90;;;;;;5072688;28;20611;-67
2023/03/20 08:23:43;;;;;;;21.80;19.00;;;16.10;99.90;;;;;;5072594;28;20232;-67
2023/03/20 08:26:12;;;;;;;28.83;22.03;;;15.80;96.40;;;;;;5072612;28;20193;-67
2023/03/20 08:28:43;;;;;;;25.43;20.10;;;16.20;97.60;;;;;;5072466;28;20193;-67
2023/03/20 08:31:16;;;;;;;23.57;18.30;;;16.30;95.60;;;;;;5072455;28;20201;-67
2023/03/20 08:33:48;;;;;;;24.93;18.93;;;16.30;94.60;;;;;;5072218;28;20221;-68
2023/03/20 08:36:19;;;;;;;21.97;18.67;;;15.90;95.10;;;;;;5072444;28;20203;-68
2023/03/20 08:38:49;;;;;;;24.07;18.80;;;15.80;96.50;;;;;;5072260;28;20203;-68
2023/03/20 08:41:18;;;;;;;24.30;19.80;;;15.60;96.70;;;;;;5072119;28;20598;-68
2023/03/20 08:43:48;;;;;;;25.30;20.03;;;15.30;98.20;;;;;;5072381;28;20326;-68
2023/03/20 08:46:17;;;;;;;24.10;20.27;;;15.30;99.30;;;;;;5072279;28;20243;-67
2023/03/20 08:48:46;;;;;;;23.77;19.77;;;15.50;98.40;;;;;;5072476;28;20236;-67
2023/03/20 08:51:15;;;;;;;24.70;20.10;;;15.30;98.90;;;;;;5072098;28;20199;-68
2023/03/20 08:53:44;;;;;;;24.03;19.00;;;15.40;98.70;;;;;;5071966;28;20713;-67
2023/03/20 08:56:13;;;;;;;22.50;19.87;;;15.20;98.50;;;;;;5071993;28;20197;-68
2023/03/20 08:58:45;;;;;;;25.73;19.57;;;15.20;99.10;;;;;;5071941;28;20217;-67
2023/03/20 09:01:16;;;;;;;26.63;19.33;;;14.70;99.90;;;;;;5071902;28;20208;-67
2023/03/20 09:03:45;;;;;;;24.83;18.73;;;14.40;99.90;;;;;;5071342;28;20297;-67
2023/03/20 09:06:14;;;;;;;23.83;19.40;;;14.10;99.90;;;;;;5071752;28;20197;-67
2023/03/20 09:08:43;;;;;;;25.07;19.73;;;13.90;99.90;;;;;;5070543;28;20209;-67
2023/03/20 09:11:12;;;;;;;23.17;17.87;;;13.80;99.90;;;;;;5071832;28;20223;-67
2023/03/20 09:13:41;;;;;;;24.80;20.23;;;13.60;99.90;;;;;;5071679;28;20223;-67
2023/03/20 09:16:10;;;;;;;23.57;18.93;;;13.60;99.90;;;;;;5071705;28;20189;-67
2023/03/20 09:18:46;;;;;;;36.60;26.43;;;13.50;99.90;;;;;;5071532;28;20309;-68
2023/03/20 09:21:15;;;;;;;29.10;21.07;;;13.30;99.90;;;;;;5071611;28;20198;-67
2023/03/20 09:23:44;;;;;;;28.43;21.50;;;13.20;99.90;;;;;;5071652;28;20217;-67
2023/03/20 09:26:13;;;;;;;29.97;21.30;;;13.00;99.90;;;;;;5071686;28;20574;-67
2023/03/20 09:28:42;;;;;;;29.07;21.27;;;12.80;99.90;;;;;;5070956;28;20209;-67
2023/03/20 09:31:12;;;;;;;29.10;21.63;;;12.70;99.90;;;;;;5071641;28;20251;-67
2023/03/20 09:33:43;;;;;;;30.73;21.70;;;12.60;99.90;;;;;;5071142;28;20235;-68
2023/03/20 09:36:14;;;;;;;33.27;21.40;;;12.60;99.90;;;;;;5071501;28;20220;-67
2023/03/20 09:38:44;;;;;;;29.93;20.50;;;12.50;99.90;;;;;;5071551;28;20198;-68
2023/03/20 09:41:20;;;;;;;31.07;21.20;;;12.50;99.90;;;;;;5070357;28;20334;-67
2023/03/20 09:44:02;;;;;;;30.17;22.13;;;12.50;99.90;;;;;;5071252;28;20230;-68
2023/03/20 09:46:56;;;;;;;34.33;21.83;;;12.50;99.90;;;;;;5071362;28;20662;-67
2023/03/20 09:50:01;;;;;;;28.40;21.03;;;12.50;99.90;;;;;;5071333;28;20225;-67
2023/03/20 09:52:37;;;;;;;31.90;22.50;;;12.60;99.90;;;;;;5071334;28;20258;-67
2023/03/20 09:55:13;;;;;;;34.73;22.90;;;12.50;99.90;;;;;;5071091;28;20224;-67
2023/03/20 09:57:44;;;;;;;36.43;23.47;;;12.40;99.90;;;;;;5071290;28;20192;-67
2023/03/20 10:00:19;;;;;;;33.10;23.67;;;12.40;99.90;;;;;;5071275;28;20673;-68
2023/03/20 10:02:53;;;;;;;41.97;28.50;;;12.30;99.90;;;;;;5069726;28;20320;-67
2023/03/20 10:05:30;;;;;;;36.00;23.70;;;12.40;99.90;;;;;;5071311;28;20205;-67
2023/03/20 10:08:05;;;;;;;35.03;23.60;;;12.30;99.90;;;;;;5071180;28;20731;-68
2023/03/20 10:10:45;;;;;;;33.87;22.93;;;12.20;99.90;;;;;;5071034;28;20203;-67
2023/03/20 10:13:57;;;;;;;34.13;22.77;;;12.20;99.90;;;;;;5071129;28;20197;-67
2023/03/20 10:16:39;;;;;;;35.97;22.80;;;12.20;99.90;;;;;;5009026;28;20273;-67
2023/03/20 10:19:31;;;;;;;37.77;24.00;;;12.10;99.90;;;;;;5009171;28;20195;-67
2023/03/20 10:22:17;;;;;;;36.10;24.43;;;11.90;99.90;;;;;;5009005;28;20679;-67
2023/03/20 10:25:10;;;;;;;35.30;23.53;;;12.00;99.90;;;;;;5009499;28;20218;-67
2023/03/20 10:27:58;;;;;;;41.40;25.30;;;12.00;99.90;;;;;;5012657;28;20203;-67
2023/03/20 10:31:13;;;;;;;43.03;27.13;;;12.00;99.90;;;;;;5012935;28;20297;-67
2023/03/20 10:33:56;;;;;;;40.07;27.17;;;12.00;99.90;;;;;;5011185;28;20234;-67
2023/03/20 10:36:56;;;;;;;41.17;28.30;;;11.90;99.90;;;;;;5012832;28;20203;-67
2023/03/20 10:39:55;;;;;;;84.10;51.67;;;11.90;99.90;;;;;;5012732;28;20289;-68
2023/03/20 10:42:44;;;;;;;42.80;26.50;;;11.80;99.90;;;;;;5012596;28;20202;-67
2023/03/20 10:45:44;;;;;;;40.57;26.57;;;11.70;99.90;;;;;;5012846;28;20246;-67
2023/03/20 10:48:22;;;;;;;40.53;25.47;;;11.70;99.90;;;;;;5012577;28;20206;-66
2023/03/20 10:50:59;;;;;;;40.23;23.87;;;11.50;99.90;;;;;;5012700;28;20341;-67
2023/03/20 10:53:42;;;;;;;34.83;22.50;;;11.40;99.90;;;;;;5047766;28;20273;-67
2023/03/20 10:56:25;;;;;;;38.93;23.50;;;11.30;99.90;;;;;;5074441;28;20201;-67
2023/03/20 10:58:59;;;;;;;40.63;24.50;;;11.30;99.90;;;;;;5074449;28;20235;-69
2023/03/20 11:01:28;;;;;;;37.97;23.90;;;11.40;99.90;;;;;;5074210;28;20228;-67
2023/03/20 11:04:13;;;;;;;38.90;22.90;;;11.40;99.90;;;;;;5073962;28;20253;-67
2023/03/20 11:06:49;;;;;;;42.10;26.03;;;11.30;99.90;;;;;;5074217;28;20255;-67
2023/03/20 11:09:25;;;;;;;43.00;23.93;;;11.30;99.90;;;;;;5074141;28;20246;-67
2023/03/20 11:12:05;;;;;;;41.40;24.03;;;11.30;99.90;;;;;;5074099;28;20730;-67
2023/03/20 11:14:41;;;;;;;43.33;23.97;;;11.30;99.90;;;;;;5073864;28;20290;-67
2023/03/20 11:17:14;;;;;;;38.57;21.73;;;11.10;99.90;;;;;;5073978;28;20208;-67
2023/03/20 11:19:47;;;;;;;53.20;30.03;;;10.90;99.90;;;;;;5073919;28;20203;-67
2023/03/20 11:22:26;;;;;;;41.87;23.53;;;10.70;99.90;;;;;;5073899;28;20685;-67
2023/03/20 11:25:00;;;;;;;42.47;24.13;;;10.80;99.90;;;;;;5074017;28;20201;-67
2023/03/20 11:27:31;;;;;;;39.33;22.77;;;10.90;99.90;;;;;;5073909;28;20195;-67
2023/03/20 11:30:04;;;;;;;41.03;23.33;;;10.90;99.90;;;;;;5073924;28;20200;-67
2023/03/20 11:32:55;;;;;;;36.03;21.33;;;10.70;99.90;;;;;;5072448;28;20255;-67
2023/03/20 11:35:53;;;;;;;33.33;20.10;;;10.70;99.90;;;;;;5073635;28;20217;-67
2023/03/20 11:38:31;;;;;;;32.00;19.73;;;10.40;99.90;;;;;;5072968;28;20205;-66
2023/03/20 11:41:48;;;;;;;33.10;18.90;;;10.40;99.90;;;;;;5072186;28;20641;-67
2023/03/20 11:45:26;;;;;;;35.87;20.07;;;10.30;99.90;;;;;;5073200;28;20201;-67
2023/03/20 11:48:56;;;;;;;31.87;18.97;;;10.20;99.90;;;;;;5031108;28;20297;-67
2023/03/20 11:55:01;;;;;;;22.80;14.43;;;10.30;99.90;;;;;;5031056;28;20221;-67
2023/03/20 12:01:33;;;;;;;20.23;12.07;;;10.30;99.90;;;;;;4906157;28;20249;-69
2023/03/20 12:04:46;;;;;;;14.07;9.63;;;10.30;99.90;;;;;;4952587;28;20862;-66
2023/03/20 12:07:44;;;;;;;14.20;10.50;;;10.20;99.90;;;;;;4952696;28;20582;-67
2023/03/20 12:10:56;;;;;;;12.17;7.60;;;10.30;99.90;;;;;;4924597;29;20328;-67
2023/03/20 12:13:53;;;;;;;11.83;8.20;;;10.10;99.90;;;;;;4952457;28;20641;-67
2023/03/20 12:17:11;;;;;;;12.67;7.83;;;10.20;99.90;;;;;;4920251;28;20209;-67
2023/03/20 12:20:06;;;;;;;10.13;7.90;;;10.50;99.90;;;;;;5009600;28;20330;-67
2023/03/20 12:23:01;;;;;;;11.13;8.27;;;10.60;99.90;;;;;;5041523;28;20258;-67
2023/03/20 12:26:09;;;;;;;14.13;8.20;;;10.30;99.90;;;;;;5072531;28;20201;-67
2023/03/20 12:29:35;;;;;;;8.37;6.80;;;10.40;99.90;;;;;;4932914;29;20212;-67
2023/03/20 12:32:33;;;;;;;9.77;7.03;;;10.30;99.90;;;;;;4932958;29;20300;-67
2023/03/20 12:35:50;;;;;;;12.23;8.07;;;10.30;99.90;;;;;;4932861;29;20256;-67
2023/03/20 12:42:08;;;;;;;10.53;8.07;;;10.30;99.90;;;;;;4932816;29;20222;-67
2023/03/20 12:44:50;;;;;;;12.60;8.27;;;10.10;99.90;;;;;;4932885;29;20221;-67
2023/03/20 12:47:44;;;;;;;13.80;8.67;;;9.90;99.90;;;;;;4932697;29;20212;-67
2023/03/20 12:50:40;;;;;;;12.87;8.33;;;10.10;99.90;;;;;;4932644;29;20240;-67
2023/03/20 12:54:20;;;;;;;15.23;10.30;;;10.10;99.90;;;;;;4932614;29;20209;-67
2023/03/20 12:57:44;;;;;;;13.73;9.80;;;10.00;99.90;;;;;;4932708;29;20205;-67
2023/03/20 13:01:05;;;;;;;12.70;7.83;;;10.00;99.90;;;;;;5000077;28;20300;-67
2023/03/20 13:04:42;;;;;;;16.43;8.87;;;10.00;99.90;;;;;;4936176;28;20334;-67
2023/03/20 13:07:18;;;;;;;15.03;9.73;;;9.80;99.90;;;;;;4951593;28;21293;-67
2023/03/20 13:10:05;;;;;;;16.43;10.57;;;9.80;99.90;;;;;;4951562;28;20348;-67
2023/03/20 13:12:43;;;;;;;15.10;9.07;;;9.80;99.90;;;;;;4951411;28;20271;-68
2023/03/20 13:15:25;;;;;;;12.97;8.77;;;9.70;99.90;;;;;;4951206;28;21091;-66
2023/03/20 13:18:01;;;;;;;16.17;9.73;;;9.60;99.90;;;;;;4951339;28;20249;-67
2023/03/20 13:20:40;;;;;;;12.33;8.80;;;9.70;99.90;;;;;;4952194;28;20216;-67
2023/03/20 13:23:21;;;;;;;13.07;9.40;;;9.70;99.90;;;;;;5009771;28;20651;-67
2023/03/20 13:26:12;;;;;;;12.07;8.67;;;9.80;99.90;;;;;;5009515;28;20206;-67
2023/03/20 13:28:55;;;;;;;15.13;9.40;;;9.80;99.90;;;;;;5009608;28;20203;-67
2023/03/20 13:31:40;;;;;;;15.57;9.47;;;9.80;99.90;;;;;;5071057;28;20207;-67
2023/03/20 13:34:24;;;;;;;13.97;10.17;;;9.80;99.90;;;;;;5071399;28;20206;-67
2023/03/20 13:37:12;;;;;;;12.10;8.67;;;9.90;99.90;;;;;;5071421;28;20269;-67
2023/03/20 13:40:12;;;;;;;14.30;9.27;;;9.90;99.90;;;;;;5071307;28;20212;-67
2023/03/20 13:42:53;;;;;;;11.73;8.00;;;10.00;99.90;;;;;;5071435;28;20595;-68
2023/03/20 13:45:32;;;;;;;15.80;10.17;;;10.00;99.90;;;;;;5071082;28;20673;-67
2023/03/20 13:48:25;;;;;;;15.40;9.70;;;10.00;99.90;;;;;;5071133;28;20199;-67
2023/03/20 13:51:12;;;;;;;12.47;9.30;;;10.00;99.90;;;;;;5071285;28;20212;-67
2023/03/20 13:54:34;;;;;;;11.03;8.60;;;10.00;99.90;;;;;;5069091;28;20223;-67
2023/03/20 14:00:35;;;;;;;13.90;9.80;;;10.00;99.90;;;;;;5072516;28;20219;-67